Time;durP1;ratioP1;P1;durP2;ratioP2;P2;SDS_P1;SDS_P2;PMS_P1;PMS_P2;Temp;Humidity;BMP_temperature;BMP_pressure;BME280_temperature;BME280_humidity;BME280_pressure;Samples;Min_cycle;Max_cycle;Signal;HPM_P1;HPM_P2
2022/09/05 00:00:04;;;;;;;;;;;;;;;;;;1046875;28;4174;-51
2022/09/05 00:01:10;;;;;;;;;;;;;;;;;;1045935;28;4095;-53
2022/09/05 00:02:26;;;;;;;;;;;;;;;;;;1050648;28;3909;-50
2022/09/05 00:03:27;;;;;;;;;;;;;;;;;;1051621;28;4065;-53
2022/09/05 00:04:25;;;;;;;;;;;;;;;;;;1051322;28;3927;-49
2022/09/05 00:05:39;;;;;;;;;;;;;;;;;;1050301;28;3959;-51
2022/09/05 00:06:30;;;;;;;;;;;;;;;;;;1051675;28;4169;-51
2022/09/05 00:07:48;;;;;;;;;;;;;;;;;;1051520;28;3907;-50
2022/09/05 00:08:45;;;;;;;;;;;;;;;;;;1043831;28;4169;-52
2022/09/05 00:09:37;;;;;;;;;;;;;;;;;;1050969;28;3986;-53
2022/09/05 00:10:26;;;;;;;;;;;;;;;;;;1051260;28;4123;-50
2022/09/05 00:11:27;;;;;;;;;;;;;;;;;;1045824;28;3866;-51
2022/09/05 00:12:17;;;;;;;;;;;;;;;;;;1047122;28;3870;-53
2022/09/05 00:13:11;;;;;;;;;;;;;;;;;;1050127;28;3915;-51
2022/09/05 00:14:26;;;;;;;;;;;;;;;;;;1049324;28;3970;-52
2022/09/05 00:15:26;;;;;;;;;;;;;;;;;;1049606;28;4084;-49
2022/09/05 00:16:25;;;;;;;;;;;;;;;;;;1050655;28;4090;-53
2022/09/05 00:17:23;;;;;;;;;;;;;;;;;;1050114;28;3882;-50
2022/09/05 00:18:14;;;;;;;;;;;;;;;;;;1045797;28;4051;-49
2022/09/05 00:19:15;;;;;;;;;;;;;;;;;;1047135;28;4154;-51
2022/09/05 00:20:27;;;;;;;;;;;;;;;;;;1050039;28;4381;-51
2022/09/05 00:21:34;;;;;;;;;;;;;;;;;;1045120;28;4024;-53
2022/09/05 00:22:43;;;;;;;;;;;;;;;;;;1045664;28;4007;-50
2022/09/05 00:23:35;;;;;;;;;;;;;;;;;;1047393;28;4274;-50
2022/09/05 00:24:43;;;;;;;;;;;;;;;;;;1049790;28;5084;-51
2022/09/05 00:25:51;;;;;;;;;;;;;;;;;;1049080;28;4226;-50
2022/09/05 00:26:49;;;;;;;;;;;;;;;;;;1050354;28;3994;-54
2022/09/05 00:27:45;;;;;;;;;;;;;;;;;;1050924;28;4167;-48
2022/09/05 00:28:48;;;;;;;;;;;;;;;;;;1050231;28;3973;-49
2022/09/05 00:29:50;;;;;;;;;;;;;;;;;;1050709;28;4181;-53
2022/09/05 00:30:59;;;;;;;;;;;;;;;;;;1049380;28;4153;-49
2022/09/05 00:32:07;;;;;;;;;;;;;;;;;;1049212;28;3976;-52
2022/09/05 00:33:14;;;;;;;;;;;;;;;;;;1049373;28;4149;-53
2022/09/05 00:34:03;;;;;;;;;;;;;;;;;;1050354;28;3892;-51
2022/09/05 00:34:58;;;;;;;;;;;;;;;;;;1051626;28;4141;-52
2022/09/05 00:35:55;;;;;;;;;;;;;;;;;;1051444;28;3465;-50
2022/09/05 00:36:45;;;;;;;;;;;;;;;;;;1049022;28;3983;-52
2022/09/05 00:37:37;;;;;;;;;;;;;;;;;;1049034;28;4189;-54
2022/09/05 00:38:27;;;;;;;;;;;;;;;;;;1046485;28;4843;-51
2022/09/05 00:39:21;;;;;;;;;;;;;;;;;;1042733;28;3896;-50
2022/09/05 00:40:20;;;;;;;;;;;;;;;;;;1045270;28;3926;-51
2022/09/05 00:41:10;;;;;;;;;;;;;;;;;;1050874;28;4085;-53
2022/09/05 00:42:03;;;;;;;;;;;;;;;;;;1047933;28;4001;-52
2022/09/05 00:42:55;;;;;;;;;;;;;;;;;;1047934;28;3934;-53
2022/09/05 00:43:47;;;;;;;;;;;;;;;;;;1050971;28;2296;-53
2022/09/05 00:44:46;;;;;;;;;;;;;;;;;;1050460;28;3995;-50
2022/09/05 00:45:42;;;;;;;;;;;;;;;;;;1050153;28;4006;-51
2022/09/05 00:46:33;;;;;;;;;;;;;;;;;;1050950;28;4147;-54
2022/09/05 00:47:51;;;;;;;;;;;;;;;;;;1050711;28;3996;-49
2022/09/05 00:48:40;;;;;;;;;;;;;;;;;;1051454;28;3980;-51
2022/09/05 00:49:35;;;;;;;;;;;;;;;;;;1050749;28;4203;-51
2022/09/05 00:50:42;;;;;;;;;;;;;;;;;;1051898;28;3983;-51
2022/09/05 00:51:49;;;;;;;;;;;;;;;;;;1050960;28;4166;-50
2022/09/05 00:52:40;;;;;;;;;;;;;;;;;;1051609;28;4025;-50
2022/09/05 00:53:40;;;;;;;;;;;;;;;;;;1046358;28;4384;-51
2022/09/05 00:54:48;;;;;;;;;;;;;;;;;;1045784;28;4024;-52
2022/09/05 00:55:51;;;;;;;;;;;;;;;;;;1050043;28;5082;-52
2022/09/05 00:56:52;;;;;;;;;;;;;;;;;;1050715;28;4161;-54
2022/09/05 00:57:49;;;;;;;;;;;;;;;;;;1050494;28;4686;-47
2022/09/05 00:58:49;;;;;;;;;;;;;;;;;;1050312;28;4169;-45
2022/09/05 00:59:44;;;;;;;;;;;;;;;;;;1050521;28;3964;-53
2022/09/05 01:00:42;;;;;;;;;;;;;;;;;;1050005;28;4037;-54
2022/09/05 01:01:50;;;;;;;;;;;;;;;;;;1042061;28;4964;-48
2022/09/05 01:02:55;;;;;;;;;;;;;;;;;;1042231;28;4285;-53
2022/09/05 01:03:51;;;;;;;;;;;;;;;;;;1042241;28;3965;-50
2022/09/05 01:04:59;;;;;;;;;;;;;;;;;;1044426;28;4149;-53
2022/09/05 01:06:06;;;;;;;;;;;;;;;;;;1044411;28;4186;-54
2022/09/05 01:07:07;;;;;;;;;;;;;;;;;;1042657;28;4165;-51
2022/09/05 01:08:15;;;;;;;;;;;;;;;;;;1044253;28;4157;-53
2022/09/05 01:09:23;;;;;;;;;;;;;;;;;;1042188;28;3979;-52
2022/09/05 01:10:18;;;;;;;;;;;;;;;;;;1042131;28;4265;-55
2022/09/05 01:11:17;;;;;;;;;;;;;;;;;;1041824;28;4375;-50
2022/09/05 01:12:26;;;;;;;;;;;;;;;;;;1040996;28;3927;-49
2022/09/05 01:13:23;;;;;;;;;;;;;;;;;;1041774;28;4074;-50
2022/09/05 01:14:21;;;;;;;;;;;;;;;;;;1041499;28;4052;-53
2022/09/05 01:15:19;;;;;;;;;;;;;;;;;;1040187;28;4082;-50
2022/09/05 01:16:11;;;;;;;;;;;;;;;;;;1041597;28;3922;-48
2022/09/05 01:17:00;;;;;;;;;;;;;;;;;;1042364;28;3949;-50
2022/09/05 01:17:55;;;;;;;;;;;;;;;;;;1041788;28;2799;-49
2022/09/05 01:19:09;;;;;;;;;;;;;;;;;;1043429;28;5088;-48
2022/09/05 01:20:07;;;;;;;;;;;;;;;;;;1041477;28;4147;-52
2022/09/05 01:21:05;;;;;;;;;;;;;;;;;;1043931;28;4092;-49
2022/09/05 01:21:57;;;;;;;;;;;;;;;;;;1042915;28;4316;-49
2022/09/05 01:23:05;;;;;;;;;;;;;;;;;;1042242;28;2934;-51
2022/09/05 01:24:13;;;;;;;;;;;;;;;;;;1040486;28;4198;-51
2022/09/05 01:25:24;;;;;;;;;;;;;;;;;;1041468;28;4253;-52
2022/09/05 01:26:22;;;;;;;;;;;;;;;;;;1041925;28;4232;-50
2022/09/05 01:27:30;;;;;;;;;;;;;;;;;;1041119;28;4105;-52
2022/09/05 01:28:24;;;;;;;;;;;;;;;;;;1047654;28;3846;-52
2022/09/05 01:29:21;;;;;;;;;;;;;;;;;;1047890;28;3887;-50
2022/09/05 01:30:12;;;;;;;;;;;;;;;;;;1041548;28;4075;-53
2022/09/05 01:31:08;;;;;;;;;;;;;;;;;;1042005;28;4041;-53
2022/09/05 01:32:15;;;;;;;;;;;;;;;;;;1041745;28;4291;-53
2022/09/05 01:33:20;;;;;;;;;;;;;;;;;;1041291;28;4070;-52
2022/09/05 01:34:28;;;;;;;;;;;;;;;;;;1041449;28;3913;-48
2022/09/05 01:35:26;;;;;;;;;;;;;;;;;;1042978;28;4045;-50
2022/09/05 01:36:27;;;;;;;;;;;;;;;;;;1042178;28;4070;-53
2022/09/05 01:37:23;;;;;;;;;;;;;;;;;;1041977;28;4028;-52
2022/09/05 01:38:21;;;;;;;;;;;;;;;;;;1041685;28;4079;-50
2022/09/05 01:39:26;;;;;;;;;;;;;;;;;;1041674;28;3912;-52
2022/09/05 01:40:21;;;;;;;;;;;;;;;;;;1042370;28;4258;-49
2022/09/05 01:41:29;;;;;;;;;;;;;;;;;;1042105;28;3922;-53
2022/09/05 01:42:31;;;;;;;;;;;;;;;;;;1042180;28;4217;-49
2022/09/05 01:43:38;;;;;;;;;;;;;;;;;;1040916;28;5002;-53
2022/09/05 01:44:27;;;;;;;;;;;;;;;;;;1044239;28;5142;-50
2022/09/05 01:45:22;;;;;;;;;;;;;;;;;;1040938;28;4378;-48
2022/09/05 01:46:26;;;;;;;;;;;;;;;;;;1041092;28;3949;-51
2022/09/05 01:47:38;;;;;;;;;;;;;;;;;;1041052;28;4220;-51
2022/09/05 01:48:29;;;;;;;;;;;;;;;;;;1043073;28;4191;-53
2022/09/05 01:49:23;;;;;;;;;;;;;;;;;;1043120;28;4078;-49
2022/09/05 01:50:24;;;;;;;;;;;;;;;;;;1042584;28;4097;-50
2022/09/05 01:51:25;;;;;;;;;;;;;;;;;;1042912;28;3868;-51
2022/09/05 01:52:18;;;;;;;;;;;;;;;;;;1043622;28;4050;-49
2022/09/05 01:53:24;;;;;;;;;;;;;;;;;;1042386;28;4109;-52
2022/09/05 01:54:22;;;;;;;;;;;;;;;;;;1043221;28;4165;-51
2022/09/05 01:55:29;;;;;;;;;;;;;;;;;;1042502;28;4170;-50
2022/09/05 01:56:28;;;;;;;;;;;;;;;;;;1043603;28;4023;-49
2022/09/05 01:57:24;;;;;;;;;;;;;;;;;;1043378;28;4031;-50
2022/09/05 01:58:15;;;;;;;;;;;;;;;;;;1043270;28;3881;-53
2022/09/05 01:59:23;;;;;;;;;;;;;;;;;;1043098;28;4111;-51
2022/09/05 02:00:20;;;;;;;;;;;;;;;;;;1042393;28;3949;-48
2022/09/05 02:01:34;;;;;;;;;;;;;;;;;;1043469;28;3975;-52
2022/09/05 02:02:33;;;;;;;;;;;;;;;;;;1051520;28;5171;-52
2022/09/05 02:03:30;;;;;;;;;;;;;;;;;;1046659;28;3987;-52
2022/09/05 02:04:34;;;;;;;;;;;;;;;;;;1048720;28;3961;-51
2022/09/05 02:05:28;;;;;;;;;;;;;;;;;;1047841;28;5802;-49
2022/09/05 02:06:32;;;;;;;;;;;;;;;;;;1047619;28;3934;-52
2022/09/05 02:07:21;;;;;;;;;;;;;;;;;;1047629;28;4129;-49
2022/09/05 02:08:28;;;;;;;;;;;;;;;;;;1045797;28;3902;-52
2022/09/05 02:09:32;;;;;;;;;;;;;;;;;;1048423;28;3996;-51
2022/09/05 02:10:39;;;;;;;;;;;;;;;;;;1052221;28;4173;-50
2022/09/05 02:11:46;;;;;;;;;;;;;;;;;;1050823;28;5103;-52
2022/09/05 02:12:42;;;;;;;;;;;;;;;;;;1050889;28;4369;-50
2022/09/05 02:13:34;;;;;;;;;;;;;;;;;;1051124;28;4180;-49
2022/09/05 02:14:29;;;;;;;;;;;;;;;;;;1044208;28;4027;-54
2022/09/05 02:15:25;;;;;;;;;;;;;;;;;;1045386;28;3826;-52
2022/09/05 02:16:14;;;;;;;;;;;;;;;;;;1050891;28;4065;-50
2022/09/05 02:17:22;;;;;;;;;;;;;;;;;;1051322;28;3946;-53
2022/09/05 02:18:14;;;;;;;;;;;;;;;;;;1048535;28;3904;-52
2022/09/05 02:19:09;;;;;;;;;;;;;;;;;;1047933;28;3885;-49
2022/09/05 02:20:06;;;;;;;;;;;;;;;;;;1051094;28;3993;-49
2022/09/05 02:20:57;;;;;;;;;;;;;;;;;;1050628;28;3908;-50
2022/09/05 02:22:06;;;;;;;;;;;;;;;;;;1052151;28;2035;-50
2022/09/05 02:22:55;;;;;;;;;;;;;;;;;;1050546;28;4040;-50
2022/09/05 02:23:52;;;;;;;;;;;;;;;;;;1051282;28;3697;-50
2022/09/05 02:24:43;;;;;;;;;;;;;;;;;;1051059;28;4332;-52
2022/09/05 02:25:43;;;;;;;;;;;;;;;;;;1050989;28;4188;-49
2022/09/05 02:26:35;;;;;;;;;;;;;;;;;;1052016;28;4141;-49
2022/09/05 02:27:34;;;;;;;;;;;;;;;;;;1050044;28;3978;-54
2022/09/05 02:28:29;;;;;;;;;;;;;;;;;;1050999;28;4050;-52
2022/09/05 02:29:34;;;;;;;;;;;;;;;;;;1050565;28;3865;-52
2022/09/05 02:30:23;;;;;;;;;;;;;;;;;;1051499;28;4006;-50
2022/09/05 02:31:33;;;;;;;;;;;;;;;;;;1051316;28;3785;-52
2022/09/05 02:32:26;;;;;;;;;;;;;;;;;;1051085;28;4194;-49
2022/09/05 02:33:25;;;;;;;;;;;;;;;;;;1050641;28;4028;-49
2022/09/05 02:34:26;;;;;;;;;;;;;;;;;;1051547;28;3876;-52
2022/09/05 02:35:19;;;;;;;;;;;;;;;;;;1050264;28;3886;-52
2022/09/05 02:36:13;;;;;;;;;;;;;;;;;;1050739;28;3917;-54
2022/09/05 02:37:05;;;;;;;;;;;;;;;;;;1045941;28;3962;-51
2022/09/05 02:38:00;;;;;;;;;;;;;;;;;;1045737;28;3997;-49
2022/09/05 02:39:12;;;;;;;;;;;;;;;;;;1048327;28;2647;-54
2022/09/05 02:40:11;;;;;;;;;;;;;;;;;;1045298;28;4066;-52
2022/09/05 02:41:20;;;;;;;;;;;;;;;;;;1049366;28;3914;-53
2022/09/05 02:42:21;;;;;;;;;;;;;;;;;;1029187;28;3933;-50
2022/09/05 02:43:16;;;;;;;;;;;;;;;;;;1044299;28;4200;-52
2022/09/05 02:44:11;;;;;;;;;;;;;;;;;;1048967;28;3914;-54
2022/09/05 02:45:04;;;;;;;;;;;;;;;;;;1048907;28;3932;-53
2022/09/05 02:46:11;;;;;;;;;;;;;;;;;;1049348;28;3989;-50
2022/09/05 02:46:59;;;;;;;;;;;;;;;;;;1048874;28;3917;-50
2022/09/05 02:48:00;;;;;;;;;;;;;;;;;;1050971;28;3022;-50
2022/09/05 02:48:53;;;;;;;;;;;;;;;;;;1050588;28;4150;-54
2022/09/05 02:49:51;;;;;;;;;;;;;;;;;;1053575;28;3969;-50
2022/09/05 02:50:40;;;;;;;;;;;;;;;;;;1051161;28;3948;-51
2022/09/05 02:51:41;;;;;;;;;;;;;;;;;;1047872;28;4173;-53
2022/09/05 02:52:31;;;;;;;;;;;;;;;;;;1047845;28;4185;-53
2022/09/05 02:53:24;;;;;;;;;;;;;;;;;;1050779;28;4059;-52
2022/09/05 02:54:16;;;;;;;;;;;;;;;;;;1049901;28;4024;-52
2022/09/05 02:55:10;;;;;;;;;;;;;;;;;;1046795;28;4092;-50
2022/09/05 02:56:08;;;;;;;;;;;;;;;;;;1046575;28;4073;-52
2022/09/05 02:57:12;;;;;;;;;;;;;;;;;;1050713;28;3910;-51
2022/09/05 02:58:14;;;;;;;;;;;;;;;;;;1050840;28;3899;-54
2022/09/05 02:59:09;;;;;;;;;;;;;;;;;;1051131;28;3965;-55
2022/09/05 02:59:58;;;;;;;;;;;;;;;;;;1050787;28;4088;-48
2022/09/05 03:00:56;;;;;;;;;;;;;;;;;;1051310;28;1780;-51
2022/09/05 03:02:05;;;;;;;;;;;;;;;;;;1049789;28;4028;-53
2022/09/05 03:03:05;;;;;;;;;;;;;;;;;;1050323;28;4427;-50
2022/09/05 03:04:02;;;;;;;;;;;;;;;;;;1049448;28;4189;-51
2022/09/05 03:04:58;;;;;;;;;;;;;;;;;;1051008;28;4061;-53
2022/09/05 03:05:58;;;;;;;;;;;;;;;;;;1047638;28;2924;-50
2022/09/05 03:07:01;;;;;;;;;;;;;;;;;;1046913;28;3963;-51
2022/09/05 03:07:53;;;;;;;;;;;;;;;;;;1049514;28;4044;-48
2022/09/05 03:08:54;;;;;;;;;;;;;;;;;;1052149;28;2178;-49
2022/09/05 03:09:50;;;;;;;;;;;;;;;;;;1050491;28;4134;-51
2022/09/05 03:10:54;;;;;;;;;;;;;;;;;;1051273;28;4099;-52
2022/09/05 03:11:52;;;;;;;;;;;;;;;;;;1050654;28;3919;-54
2022/09/05 03:12:54;;;;;;;;;;;;;;;;;;1050780;28;4231;-51
2022/09/05 03:14:02;;;;;;;;;;;;;;;;;;1050757;28;4138;-50
2022/09/05 03:15:06;;;;;;;;;;;;;;;;;;1051191;28;4105;-49
2022/09/05 03:16:04;;;;;;;;;;;;;;;;;;1050896;28;4178;-53
2022/09/05 03:17:12;;;;;;;;;;;;;;;;;;1050146;28;3887;-50
2022/09/05 03:18:12;;;;;;;;;;;;;;;;;;1050989;28;4071;-50
2022/09/05 03:19:20;;;;;;;;;;;;;;;;;;1050999;28;3885;-53
2022/09/05 03:20:09;;;;;;;;;;;;;;;;;;1050287;28;4053;-53
2022/09/05 03:21:16;;;;;;;;;;;;;;;;;;1050697;28;3912;-50
2022/09/05 03:22:08;;;;;;;;;;;;;;;;;;1051057;28;3881;-52
2022/09/05 03:22:57;;;;;;;;;;;;;;;;;;1050085;28;4027;-51
2022/09/05 03:23:55;;;;;;;;;;;;;;;;;;1051439;28;1378;-50
2022/09/05 03:24:51;;;;;;;;;;;;;;;;;;1049705;28;4158;-53
2022/09/05 03:25:59;;;;;;;;;;;;;;;;;;1050939;28;1606;-52
2022/09/05 03:26:57;;;;;;;;;;;;;;;;;;1049997;28;4170;-51
2022/09/05 03:28:05;;;;;;;;;;;;;;;;;;1050388;28;3938;-54
2022/09/05 03:29:18;;;;;;;;;;;;;;;;;;1050626;28;4172;-52
2022/09/05 03:30:10;;;;;;;;;;;;;;;;;;1049882;28;4068;-54
2022/09/05 03:31:18;;;;;;;;;;;;;;;;;;1050793;28;4056;-49
2022/09/05 03:32:32;;;;;;;;;;;;;;;;;;1048500;28;4330;-52
2022/09/05 03:33:39;;;;;;;;;;;;;;;;;;1049356;28;4043;-51
2022/09/05 03:34:40;;;;;;;;;;;;;;;;;;1046447;28;4140;-52
2022/09/05 03:35:46;;;;;;;;;;;;;;;;;;1045711;28;4181;-52
2022/09/05 03:36:48;;;;;;;;;;;;;;;;;;1050432;28;3991;-49
2022/09/05 03:37:59;;;;;;;;;;;;;;;;;;1049781;28;3991;-53
2022/09/05 03:39:07;;;;;;;;;;;;;;;;;;1048720;28;3972;-54
2022/09/05 03:39:59;;;;;;;;;;;;;;;;;;1046345;28;4025;-51
2022/09/05 03:40:48;;;;;;;;;;;;;;;;;;1046463;28;2906;-51
2022/09/05 03:41:43;;;;;;;;;;;;;;;;;;1049324;28;4006;-53
2022/09/05 03:42:37;;;;;;;;;;;;;;;;;;1050179;28;4239;-50
2022/09/05 03:43:35;;;;;;;;;;;;;;;;;;1047682;28;4150;-52
2022/09/05 03:44:24;;;;;;;;;;;;;;;;;;1047991;28;4184;-53
2022/09/05 03:45:30;;;;;;;;;;;;;;;;;;1049374;28;4002;-53
2022/09/05 03:46:38;;;;;;;;;;;;;;;;;;1049702;28;3872;-52
2022/09/05 03:47:43;;;;;;;;;;;;;;;;;;1051005;28;4162;-51
2022/09/05 03:48:32;;;;;;;;;;;;;;;;;;1050578;28;5565;-49
2022/09/05 03:49:52;;;;;;;;;;;;;;;;;;1051136;28;4185;-50
2022/09/05 03:50:51;;;;;;;;;;;;;;;;;;1049178;28;3982;-48
2022/09/05 03:51:50;;;;;;;;;;;;;;;;;;1050516;28;4149;-52
2022/09/05 03:52:58;;;;;;;;;;;;;;;;;;1049713;28;4157;-50
2022/09/05 03:54:02;;;;;;;;;;;;;;;;;;1050779;28;3973;-53
2022/09/05 03:55:11;;;;;;;;;;;;;;;;;;1048367;28;3992;-53
2022/09/05 03:56:19;;;;;;;;;;;;;;;;;;1050027;28;3923;-55
2022/09/05 03:57:07;;;;;;;;;;;;;;;;;;1049596;28;4005;-49
2022/09/05 03:58:10;;;;;;;;;;;;;;;;;;1044894;28;4086;-54
2022/09/05 03:59:08;;;;;;;;;;;;;;;;;;1043306;28;4087;-51
2022/09/05 04:00:15;;;;;;;;;;;;;;;;;;1047773;28;4108;-51
2022/09/05 04:01:10;;;;;;;;;;;;;;;;;;1051295;28;4069;-53
2022/09/05 04:02:34;;;;;;;;;;;;;;;;;;1046931;28;4169;-53
2022/09/05 04:03:32;;;;;;;;;;;;;;;;;;1049566;28;4038;-51
2022/09/05 04:04:23;;;;;;;;;;;;;;;;;;1047509;28;3986;-53
2022/09/05 04:05:17;;;;;;;;;;;;;;;;;;1048179;28;3987;-51
2022/09/05 04:06:10;;;;;;;;;;;;;;;;;;1050034;28;3905;-51
2022/09/05 04:07:01;;;;;;;;;;;;;;;;;;1051351;28;4149;-55
2022/09/05 04:07:57;;;;;;;;;;;;;;;;;;1051384;28;3943;-50
2022/09/05 04:08:48;;;;;;;;;;;;;;;;;;1050732;28;1930;-52
2022/09/05 04:09:39;;;;;;;;;;;;;;;;;;1048333;28;4193;-54
2022/09/05 04:10:32;;;;;;;;;;;;;;;;;;1046040;28;4148;-51
2022/09/05 04:11:34;;;;;;;;;;;;;;;;;;1051118;28;4227;-48
2022/09/05 04:12:27;;;;;;;;;;;;;;;;;;1046587;28;4170;-54
2022/09/05 04:13:25;;;;;;;;;;;;;;;;;;1045056;28;4094;-51
2022/09/05 04:14:20;;;;;;;;;;;;;;;;;;1051242;28;4072;-50
2022/09/05 04:15:25;;;;;;;;;;;;;;;;;;1049983;28;4061;-54
2022/09/05 04:16:17;;;;;;;;;;;;;;;;;;1050275;28;4058;-52
2022/09/05 04:17:09;;;;;;;;;;;;;;;;;;1052572;28;3901;-51
2022/09/05 04:18:00;;;;;;;;;;;;;;;;;;1052368;28;4340;-53
2022/09/05 04:19:07;;;;;;;;;;;;;;;;;;1050344;28;2911;-51
2022/09/05 04:20:01;;;;;;;;;;;;;;;;;;1045576;28;4136;-49
2022/09/05 04:20:56;;;;;;;;;;;;;;;;;;1047465;28;4104;-52
2022/09/05 04:21:48;;;;;;;;;;;;;;;;;;1051252;28;3768;-51
2022/09/05 04:22:58;;;;;;;;;;;;;;;;;;1050146;28;4010;-51
2022/09/05 04:23:59;;;;;;;;;;;;;;;;;;1048007;28;4018;-53
2022/09/05 04:25:07;;;;;;;;;;;;;;;;;;1048706;28;4128;-53
2022/09/05 04:26:05;;;;;;;;;;;;;;;;;;1049352;28;3976;-53
2022/09/05 04:27:09;;;;;;;;;;;;;;;;;;1049849;28;3921;-53
2022/09/05 04:28:13;;;;;;;;;;;;;;;;;;1050694;28;3898;-48
2022/09/05 04:29:17;;;;;;;;;;;;;;;;;;1051126;28;3928;-50
2022/09/05 04:30:27;;;;;;;;;;;;;;;;;;1048958;28;3983;-51
2022/09/05 04:31:19;;;;;;;;;;;;;;;;;;1047265;28;4090;-51
2022/09/05 04:32:21;;;;;;;;;;;;;;;;;;1051190;28;4066;-49
2022/09/05 04:33:18;;;;;;;;;;;;;;;;;;1051709;28;4081;-50
2022/09/05 04:34:14;;;;;;;;;;;;;;;;;;1045872;28;4100;-50
2022/09/05 04:35:17;;;;;;;;;;;;;;;;;;1046350;28;3853;-51
2022/09/05 04:36:14;;;;;;;;;;;;;;;;;;1049869;28;3881;-50
2022/09/05 04:37:05;;;;;;;;;;;;;;;;;;1050446;28;3908;-49
2022/09/05 04:38:10;;;;;;;;;;;;;;;;;;1050925;28;4072;-52
2022/09/05 04:39:17;;;;;;;;;;;;;;;;;;1050275;28;4078;-53
2022/09/05 04:40:25;;;;;;;;;;;;;;;;;;1050227;28;4553;-48
2022/09/05 04:41:19;;;;;;;;;;;;;;;;;;1050223;28;3957;-52
2022/09/05 04:42:20;;;;;;;;;;;;;;;;;;1049253;28;3931;-50
2022/09/05 04:43:23;;;;;;;;;;;;;;;;;;1048926;28;4057;-51
2022/09/05 04:44:16;;;;;;;;;;;;;;;;;;1049652;28;3873;-55
2022/09/05 04:45:13;;;;;;;;;;;;;;;;;;1047792;28;3923;-50
2022/09/05 04:46:14;;;;;;;;;;;;;;;;;;1046174;28;3951;-50
2022/09/05 04:47:02;;;;;;;;;;;;;;;;;;1046456;28;4113;-53
2022/09/05 04:47:53;;;;;;;;;;;;;;;;;;1048427;28;3967;-52
2022/09/05 04:49:00;;;;;;;;;;;;;;;;;;1050040;28;3801;-51
2022/09/05 04:49:54;;;;;;;;;;;;;;;;;;1050060;28;4199;-54
2022/09/05 04:51:12;;;;;;;;;;;;;;;;;;1050668;28;4165;-53
2022/09/05 04:52:16;;;;;;;;;;;;;;;;;;1031547;28;4282;-49
2022/09/05 04:53:17;;;;;;;;;;;;;;;;;;1031253;28;3929;-53
2022/09/05 04:54:09;;;;;;;;;;;;;;;;;;1048760;28;3974;-52
2022/09/05 04:55:06;;;;;;;;;;;;;;;;;;1050817;28;3901;-52
2022/09/05 04:55:56;;;;;;;;;;;;;;;;;;1049668;28;3997;-53
2022/09/05 04:56:48;;;;;;;;;;;;;;;;;;1050746;28;1245;-55
2022/09/05 04:57:51;;;;;;;;;;;;;;;;;;1050275;28;4213;-52
2022/09/05 04:58:46;;;;;;;;;;;;;;;;;;1048725;28;4288;-53
2022/09/05 04:59:41;;;;;;;;;;;;;;;;;;1049970;28;4177;-54
2022/09/05 05:00:48;;;;;;;;;;;;;;;;;;1047415;28;4105;-55
2022/09/05 05:01:56;;;;;;;;;;;;;;;;;;1048206;28;4179;-55
2022/09/05 05:02:57;;;;;;;;;;;;;;;;;;1044681;28;4061;-52
2022/09/05 05:03:46;;;;;;;;;;;;;;;;;;1047501;28;3900;-53
2022/09/05 05:04:35;;;;;;;;;;;;;;;;;;1046495;28;4031;-50
2022/09/05 05:05:29;;;;;;;;;;;;;;;;;;1046911;28;3979;-55
2022/09/05 05:06:24;;;;;;;;;;;;;;;;;;1046084;28;4058;-49
2022/09/05 05:07:19;;;;;;;;;;;;;;;;;;1046495;28;4259;-53
2022/09/05 05:08:17;;;;;;;;;;;;;;;;;;1045458;28;4091;-50
2022/09/05 05:09:12;;;;;;;;;;;;;;;;;;1047662;28;3945;-53
2022/09/05 05:10:01;;;;;;;;;;;;;;;;;;1047067;28;3825;-52
2022/09/05 05:10:52;;;;;;;;;;;;;;;;;;1045893;28;3980;-53
2022/09/05 05:12:02;;;;;;;;;;;;;;;;;;1043576;28;1749;-53
2022/09/05 05:12:58;;;;;;;;;;;;;;;;;;1042656;28;4184;-54
2022/09/05 05:13:52;;;;;;;;;;;;;;;;;;1046790;28;4202;-52
2022/09/05 05:14:45;;;;;;;;;;;;;;;;;;1046150;28;4203;-51
2022/09/05 05:15:43;;;;;;;;;;;;;;;;;;1045072;28;4175;-50
2022/09/05 05:16:40;;;;;;;;;;;;;;;;;;1047946;28;4176;-50
2022/09/05 05:17:36;;;;;;;;;;;;;;;;;;1041317;28;4193;-52
2022/09/05 05:18:28;;;;;;;;;;;;;;;;;;1038541;28;4179;-53
2022/09/05 05:19:32;;;;;;;;;;;;;;;;;;1043053;28;4025;-54
2022/09/05 05:20:20;;;;;;;;;;;;;;;;;;1045203;28;4179;-50
2022/09/05 05:21:15;;;;;;;;;;;;;;;;;;1045730;28;4079;-51
2022/09/05 05:22:05;;;;;;;;;;;;;;;;;;1046883;28;4074;-51
2022/09/05 05:23:07;;;;;;;;;;;;;;;;;;1045891;28;4090;-54
2022/09/05 05:23:58;;;;;;;;;;;;;;;;;;1046025;28;3962;-53
2022/09/05 05:24:49;;;;;;;;;;;;;;;;;;1045983;28;2591;-51
2022/09/05 05:25:48;;;;;;;;;;;;;;;;;;1046580;28;3963;-51
2022/09/05 05:26:43;;;;;;;;;;;;;;;;;;1045172;28;4019;-54
2022/09/05 05:28:08;;;;;;;;;;;;;;;;;;1045706;28;4189;-49
2022/09/05 05:29:07;;;;;;;;;;;;;;;;;;1041036;28;4163;-53
2022/09/05 05:29:59;;;;;;;;;;;;;;;;;;1035788;28;3922;-53
2022/09/05 05:30:48;;;;;;;;;;;;;;;;;;1036421;28;2845;-57
2022/09/05 05:31:45;;;;;;;;;;;;;;;;;;1045137;28;4016;-52
2022/09/05 05:32:33;;;;;;;;;;;;;;;;;;1046462;28;4178;-53
2022/09/05 05:33:32;;;;;;;;;;;;;;;;;;1046889;28;4141;-54
2022/09/05 05:34:26;;;;;;;;;;;;;;;;;;1046148;28;4003;-53
2022/09/05 05:35:18;;;;;;;;;;;;;;;;;;1041559;28;3917;-51
2022/09/05 05:36:13;;;;;;;;;;;;;;;;;;1046370;28;3894;-54
2022/09/05 05:37:12;;;;;;;;;;;;;;;;;;1046372;28;3892;-54
2022/09/05 05:38:08;;;;;;;;;;;;;;;;;;1048058;28;3982;-57
2022/09/05 05:39:03;;;;;;;;;;;;;;;;;;1044559;28;3905;-51
2022/09/05 05:39:59;;;;;;;;;;;;;;;;;;1043809;28;3856;-54
2022/09/05 05:40:53;;;;;;;;;;;;;;;;;;1046244;28;1695;-56
2022/09/05 05:41:44;;;;;;;;;;;;;;;;;;1045824;28;4147;-51
2022/09/05 05:42:34;;;;;;;;;;;;;;;;;;1046085;28;4021;-56
2022/09/05 05:43:42;;;;;;;;;;;;;;;;;;1045858;28;4159;-53
2022/09/05 05:44:33;;;;;;;;;;;;;;;;;;1045852;28;3975;-50
2022/09/05 05:45:25;;;;;;;;;;;;;;;;;;1045711;28;4169;-52
2022/09/05 05:46:22;;;;;;;;;;;;;;;;;;1045818;28;4061;-54
2022/09/05 05:47:17;;;;;;;;;;;;;;;;;;1045310;28;3825;-53
2022/09/05 05:48:26;;;;;;;;;;;;;;;;;;1046719;28;4050;-47
2022/09/05 05:49:26;;;;;;;;;;;;;;;;;;1046437;28;3910;-56
2022/09/05 05:50:32;;;;;;;;;;;;;;;;;;1046764;28;3858;-50
2022/09/05 05:51:35;;;;;;;;;;;;;;;;;;1046524;28;4863;-51
2022/09/05 05:52:36;;;;;;;;;;;;;;;;;;1045928;28;3959;-51
2022/09/05 05:53:34;;;;;;;;;;;;;;;;;;1045400;28;4183;-53
2022/09/05 05:54:26;;;;;;;;;;;;;;;;;;1045918;28;3992;-53
2022/09/05 05:55:33;;;;;;;;;;;;;;;;;;1045184;28;3910;-52
2022/09/05 05:56:25;;;;;;;;;;;;;;;;;;1045258;28;3984;-53
2022/09/05 05:57:20;;;;;;;;;;;;;;;;;;1045791;28;3861;-56
2022/09/05 05:58:38;;;;;;;;;;;;;;;;;;1048840;28;4059;-49
2022/09/05 05:59:50;;;;;;;;;;;;;;;;;;1038687;28;3974;-51
2022/09/05 06:00:52;;;;;;;;;;;;;;;;;;1036781;28;4015;-54
2022/09/05 06:02:04;;;;;;;;;;;;;;;;;;1047038;28;4014;-55
2022/09/05 06:03:06;;;;;;;;;;;;;;;;;;1045334;28;4155;-53
2022/09/05 06:04:13;;;;;;;;;;;;;;;;;;1046933;28;4159;-51
2022/09/05 06:05:08;;;;;;;;;;;;;;;;;;1046531;28;3886;-54
2022/09/05 06:06:05;;;;;;;;;;;;;;;;;;1046528;28;3918;-52
2022/09/05 06:07:00;;;;;;;;;;;;;;;;;;1047166;28;3969;-50
2022/09/05 06:08:01;;;;;;;;;;;;;;;;;;1047026;28;1650;-53
2022/09/05 06:09:00;;;;;;;;;;;;;;;;;;1045486;28;4970;-54
2022/09/05 06:10:08;;;;;;;;;;;;;;;;;;1046420;28;1649;-53
2022/09/05 06:11:03;;;;;;;;;;;;;;;;;;1045574;28;3992;-53
2022/09/05 06:12:05;;;;;;;;;;;;;;;;;;1046840;28;4080;-54
2022/09/05 06:13:10;;;;;;;;;;;;;;;;;;1049630;28;4091;-56
2022/09/05 06:14:01;;;;;;;;;;;;;;;;;;1048027;28;4181;-50
2022/09/05 06:14:53;;;;;;;;;;;;;;;;;;1046189;28;4094;-54
2022/09/05 06:16:07;;;;;;;;;;;;;;;;;;1046535;28;1652;-54
2022/09/05 06:17:08;;;;;;;;;;;;;;;;;;1045998;28;4126;-52
2022/09/05 06:18:29;;;;;;;;;;;;;;;;;;1045880;28;4109;-55
2022/09/05 06:19:37;;;;;;;;;;;;;;;;;;1045937;28;3920;-54
2022/09/05 06:20:46;;;;;;;;;;;;;;;;;;1049359;28;4146;-56
2022/09/05 06:21:53;;;;;;;;;;;;;;;;;;1049667;28;4026;-54
2022/09/05 06:23:01;;;;;;;;;;;;;;;;;;1046425;28;4369;-53
2022/09/05 06:24:06;;;;;;;;;;;;;;;;;;1046386;28;4174;-52
2022/09/05 06:25:01;;;;;;;;;;;;;;;;;;1046247;28;4067;-56
2022/09/05 06:25:58;;;;;;;;;;;;;;;;;;1050374;28;3338;-53
2022/09/05 06:26:50;;;;;;;;;;;;;;;;;;1048948;28;3976;-50
2022/09/05 06:27:50;;;;;;;;;;;;;;;;;;1048443;28;4117;-54
2022/09/05 06:28:49;;;;;;;;;;;;;;;;;;1046837;28;4194;-53
2022/09/05 06:29:59;;;;;;;;;;;;;;;;;;1046955;28;4155;-54
2022/09/05 06:31:02;;;;;;;;;;;;;;;;;;1048206;28;3977;-51
2022/09/05 06:31:59;;;;;;;;;;;;;;;;;;1045192;28;3957;-53
2022/09/05 06:33:06;;;;;;;;;;;;;;;;;;1047369;28;1673;-54
2022/09/05 06:33:56;;;;;;;;;;;;;;;;;;1045988;28;3968;-53
2022/09/05 06:34:55;;;;;;;;;;;;;;;;;;1048810;28;1577;-52
2022/09/05 06:35:44;;;;;;;;;;;;;;;;;;1047947;28;4934;-55
2022/09/05 06:36:48;;;;;;;;;;;;;;;;;;1047271;28;3999;-54
2022/09/05 06:37:40;;;;;;;;;;;;;;;;;;1046782;28;4011;-55
2022/09/05 06:38:52;;;;;;;;;;;;;;;;;;1045225;28;4285;-55
2022/09/05 06:40:06;;;;;;;;;;;;;;;;;;1046962;28;4147;-49
2022/09/05 06:41:04;;;;;;;;;;;;;;;;;;1047602;28;4159;-56
2022/09/05 06:42:12;;;;;;;;;;;;;;;;;;1048919;28;4098;-53
2022/09/05 06:43:04;;;;;;;;;;;;;;;;;;1048217;28;4264;-53
2022/09/05 06:44:13;;;;;;;;;;;;;;;;;;1046299;28;4087;-54
2022/09/05 06:45:25;;;;;;;;;;;;;;;;;;1047556;28;4079;-51
2022/09/05 06:46:24;;;;;;;;;;;;;;;;;;1047189;28;3908;-54
2022/09/05 06:47:15;;;;;;;;;;;;;;;;;;1046976;28;3851;-52
2022/09/05 06:48:10;;;;;;;;;;;;;;;;;;1047838;28;3900;-54
2022/09/05 06:49:11;;;;;;;;;;;;;;;;;;1046133;28;3978;-50
2022/09/05 06:50:11;;;;;;;;;;;;;;;;;;1046585;28;3919;-52
2022/09/05 06:51:11;;;;;;;;;;;;;;;;;;1047884;28;4164;-55
2022/09/05 06:52:16;;;;;;;;;;;;;;;;;;1046931;28;4431;-54